sensor_id;sensor_type;location;lat;lon;timestamp;P1;durP1;ratioP1;P2;durP2;ratioP2
66093;SDS011;52876;49.394;10.892;2023-03-14T00:01:29;0.97;;;0.80;;
66093;SDS011;52876;49.394;10.892;2023-03-14T00:03:55;1.20;;;0.70;;
66093;SDS011;52876;49.394;10.892;2023-03-14T00:06:22;0.90;;;0.60;;
66093;SDS011;52876;49.394;10.892;2023-03-14T00:08:48;4.70;;;1.17;;
66093;SDS011;52876;49.394;10.892;2023-03-14T00:11:15;0.90;;;0.60;;
66093;SDS011;52876;49.394;10.892;2023-03-14T00:13:43;1.20;;;0.70;;
66093;SDS011;52876;49.394;10.892;2023-03-14T00:16:10;0.90;;;0.70;;
66093;SDS011;52876;49.394;10.892;2023-03-14T00:18:36;0.80;;;0.60;;
66093;SDS011;52876;49.394;10.892;2023-03-14T00:21:04;1.00;;;0.60;;
66093;SDS011;52876;49.394;10.892;2023-03-14T00:23:31;0.80;;;0.70;;
66093;SDS011;52876;49.394;10.892;2023-03-14T00:25:59;1.10;;;0.70;;
66093;SDS011;52876;49.394;10.892;2023-03-14T00:28:26;1.30;;;0.60;;
66093;SDS011;52876;49.394;10.892;2023-03-14T00:30:53;1.00;;;0.70;;
66093;SDS011;52876;49.394;10.892;2023-03-14T00:33:20;0.90;;;0.60;;
66093;SDS011;52876;49.394;10.892;2023-03-14T00:35:54;0.90;;;0.60;;
66093;SDS011;52876;49.394;10.892;2023-03-14T00:38:20;1.00;;;0.70;;
66093;SDS011;52876;49.394;10.892;2023-03-14T00:40:47;0.80;;;0.60;;
66093;SDS011;52876;49.394;10.892;2023-03-14T00:43:13;0.90;;;0.70;;
66093;SDS011;52876;49.394;10.892;2023-03-14T00:45:39;1.53;;;0.70;;
66093;SDS011;52876;49.394;10.892;2023-03-14T00:48:06;1.00;;;0.70;;
66093;SDS011;52876;49.394;10.892;2023-03-14T00:50:34;0.93;;;0.60;;
66093;SDS011;52876;49.394;10.892;2023-03-14T00:53:00;0.83;;;0.60;;
66093;SDS011;52876;49.394;10.892;2023-03-14T00:55:27;0.90;;;0.60;;
66093;SDS011;52876;49.394;10.892;2023-03-14T00:57:53;0.90;;;0.60;;
66093;SDS011;52876;49.394;10.892;2023-03-14T01:00:19;0.90;;;0.63;;
66093;SDS011;52876;49.394;10.892;2023-03-14T01:02:47;1.73;;;0.63;;
66093;SDS011;52876;49.394;10.892;2023-03-14T01:05:14;0.90;;;0.60;;
66093;SDS011;52876;49.394;10.892;2023-03-14T01:07:42;0.80;;;0.53;;
66093;SDS011;52876;49.394;10.892;2023-03-14T01:10:09;0.80;;;0.50;;
66093;SDS011;52876;49.394;10.892;2023-03-14T01:12:37;0.87;;;0.57;;
66093;SDS011;52876;49.394;10.892;2023-03-14T01:15:03;0.87;;;0.60;;
66093;SDS011;52876;49.394;10.892;2023-03-14T01:17:31;2.63;;;0.70;;
66093;SDS011;52876;49.394;10.892;2023-03-14T01:19:57;0.80;;;0.50;;
66093;SDS011;52876;49.394;10.892;2023-03-14T01:22:26;0.90;;;0.60;;
66093;SDS011;52876;49.394;10.892;2023-03-14T01:24:52;0.90;;;0.60;;
66093;SDS011;52876;49.394;10.892;2023-03-14T01:27:18;1.40;;;0.70;;
66093;SDS011;52876;49.394;10.892;2023-03-14T01:29:44;0.90;;;0.60;;
66093;SDS011;52876;49.394;10.892;2023-03-14T01:32:11;1.07;;;0.70;;
66093;SDS011;52876;49.394;10.892;2023-03-14T01:34:37;1.10;;;0.60;;
66093;SDS011;52876;49.394;10.892;2023-03-14T01:37:03;0.80;;;0.60;;
66093;SDS011;52876;49.394;10.892;2023-03-14T01:39:31;1.30;;;0.70;;
66093;SDS011;52876;49.394;10.892;2023-03-14T01:41:57;1.00;;;0.70;;
66093;SDS011;52876;49.394;10.892;2023-03-14T01:44:23;0.80;;;0.60;;
66093;SDS011;52876;49.394;10.892;2023-03-14T01:46:51;0.90;;;0.70;;
66093;SDS011;52876;49.394;10.892;2023-03-14T01:49:19;1.30;;;0.63;;
66093;SDS011;52876;49.394;10.892;2023-03-14T01:51:47;1.97;;;0.70;;
66093;SDS011;52876;49.394;10.892;2023-03-14T01:54:16;1.00;;;0.67;;
66093;SDS011;52876;49.394;10.892;2023-03-14T01:56:46;0.90;;;0.80;;
66093;SDS011;52876;49.394;10.892;2023-03-14T01:59:14;0.90;;;0.70;;
66093;SDS011;52876;49.394;10.892;2023-03-14T02:01:41;0.90;;;0.70;;
66093;SDS011;52876;49.394;10.892;2023-03-14T02:04:08;1.30;;;0.70;;
66093;SDS011;52876;49.394;10.892;2023-03-14T02:06:37;0.80;;;0.60;;
66093;SDS011;52876;49.394;10.892;2023-03-14T02:09:05;1.10;;;0.70;;
66093;SDS011;52876;49.394;10.892;2023-03-14T02:11:31;1.30;;;0.70;;
66093;SDS011;52876;49.394;10.892;2023-03-14T02:13:58;0.90;;;0.70;;
66093;SDS011;52876;49.394;10.892;2023-03-14T02:16:26;1.00;;;0.70;;
66093;SDS011;52876;49.394;10.892;2023-03-14T02:18:52;2.13;;;0.80;;
66093;SDS011;52876;49.394;10.892;2023-03-14T02:21:20;0.93;;;0.60;;
66093;SDS011;52876;49.394;10.892;2023-03-14T02:23:51;0.80;;;0.50;;
66093;SDS011;52876;49.394;10.892;2023-03-14T02:26:20;0.90;;;0.60;;
66093;SDS011;52876;49.394;10.892;2023-03-14T02:28:49;0.87;;;0.60;;
66093;SDS011;52876;49.394;10.892;2023-03-14T02:31:17;0.90;;;0.70;;
66093;SDS011;52876;49.394;10.892;2023-03-14T02:33:43;1.03;;;0.70;;
66093;SDS011;52876;49.394;10.892;2023-03-14T02:36:10;0.90;;;0.60;;
66093;SDS011;52876;49.394;10.892;2023-03-14T02:38:37;1.00;;;0.67;;
66093;SDS011;52876;49.394;10.892;2023-03-14T02:41:05;1.30;;;0.70;;
66093;SDS011;52876;49.394;10.892;2023-03-14T02:43:31;1.10;;;0.80;;
66093;SDS011;52876;49.394;10.892;2023-03-14T02:46:00;0.80;;;0.60;;
66093;SDS011;52876;49.394;10.892;2023-03-14T02:48:28;1.20;;;0.63;;
66093;SDS011;52876;49.394;10.892;2023-03-14T02:50:56;0.90;;;0.60;;
66093;SDS011;52876;49.394;10.892;2023-03-14T02:53:23;0.87;;;0.60;;
66093;SDS011;52876;49.394;10.892;2023-03-14T02:55:52;0.90;;;0.60;;
66093;SDS011;52876;49.394;10.892;2023-03-14T02:58:18;1.40;;;0.70;;
66093;SDS011;52876;49.394;10.892;2023-03-14T03:00:44;0.80;;;0.60;;
66093;SDS011;52876;49.394;10.892;2023-03-14T03:03:12;1.17;;;0.70;;
66093;SDS011;52876;49.394;10.892;2023-03-14T03:05:38;0.80;;;0.60;;
66093;SDS011;52876;49.394;10.892;2023-03-14T03:08:04;0.90;;;0.63;;
66093;SDS011;52876;49.394;10.892;2023-03-14T03:10:30;1.20;;;0.70;;
66093;SDS011;52876;49.394;10.892;2023-03-14T03:12:57;0.90;;;0.60;;
66093;SDS011;52876;49.394;10.892;2023-03-14T03:15:26;1.10;;;0.77;;
66093;SDS011;52876;49.394;10.892;2023-03-14T03:17:52;0.90;;;0.70;;
66093;SDS011;52876;49.394;10.892;2023-03-14T03:20:21;0.80;;;0.50;;
66093;SDS011;52876;49.394;10.892;2023-03-14T03:22:48;0.90;;;0.60;;
66093;SDS011;52876;49.394;10.892;2023-03-14T03:25:14;1.00;;;0.60;;
66093;SDS011;52876;49.394;10.892;2023-03-14T03:27:42;0.93;;;0.60;;
66093;SDS011;52876;49.394;10.892;2023-03-14T03:30:08;1.20;;;0.70;;
66093;SDS011;52876;49.394;10.892;2023-03-14T03:32:36;0.90;;;0.67;;
66093;SDS011;52876;49.394;10.892;2023-03-14T03:35:03;0.90;;;0.60;;
66093;SDS011;52876;49.394;10.892;2023-03-14T03:37:32;0.90;;;0.70;;
66093;SDS011;52876;49.394;10.892;2023-03-14T03:39:58;0.80;;;0.60;;
66093;SDS011;52876;49.394;10.892;2023-03-14T03:42:26;1.00;;;0.60;;
66093;SDS011;52876;49.394;10.892;2023-03-14T03:44:52;0.90;;;0.67;;
66093;SDS011;52876;49.394;10.892;2023-03-14T03:47:20;1.30;;;0.70;;
66093;SDS011;52876;49.394;10.892;2023-03-14T03:49:46;1.00;;;0.60;;
66093;SDS011;52876;49.394;10.892;2023-03-14T03:52:13;1.37;;;0.70;;
66093;SDS011;52876;49.394;10.892;2023-03-14T03:54:41;0.90;;;0.67;;
66093;SDS011;52876;49.394;10.892;2023-03-14T03:57:08;0.90;;;0.60;;
66093;SDS011;52876;49.394;10.892;2023-03-14T03:59:34;0.97;;;0.70;;
66093;SDS011;52876;49.394;10.892;2023-03-14T04:02:01;0.90;;;0.60;;
66093;SDS011;52876;49.394;10.892;2023-03-14T04:04:27;0.80;;;0.60;;
66093;SDS011;52876;49.394;10.892;2023-03-14T04:06:54;0.90;;;0.70;;
66093;SDS011;52876;49.394;10.892;2023-03-14T04:09:20;0.90;;;0.60;;
66093;SDS011;52876;49.394;10.892;2023-03-14T04:11:48;0.90;;;0.60;;
66093;SDS011;52876;49.394;10.892;2023-03-14T04:14:14;0.87;;;0.63;;
66093;SDS011;52876;49.394;10.892;2023-03-14T04:16:42;0.80;;;0.60;;
66093;SDS011;52876;49.394;10.892;2023-03-14T04:19:08;0.80;;;0.60;;
66093;SDS011;52876;49.394;10.892;2023-03-14T04:21:36;1.10;;;0.70;;
66093;SDS011;52876;49.394;10.892;2023-03-14T04:24:03;0.80;;;0.60;;
66093;SDS011;52876;49.394;10.892;2023-03-14T04:26:31;1.00;;;0.70;;
66093;SDS011;52876;49.394;10.892;2023-03-14T04:28:58;1.27;;;0.60;;
66093;SDS011;52876;49.394;10.892;2023-03-14T04:31:24;0.87;;;0.60;;
66093;SDS011;52876;49.394;10.892;2023-03-14T04:33:50;1.00;;;0.60;;
66093;SDS011;52876;49.394;10.892;2023-03-14T04:36:17;1.33;;;0.60;;
66093;SDS011;52876;49.394;10.892;2023-03-14T04:38:43;0.80;;;0.60;;
66093;SDS011;52876;49.394;10.892;2023-03-14T04:41:10;0.80;;;0.57;;
66093;SDS011;52876;49.394;10.892;2023-03-14T04:43:36;1.00;;;0.70;;
66093;SDS011;52876;49.394;10.892;2023-03-14T04:46:04;0.90;;;0.80;;
66093;SDS011;52876;49.394;10.892;2023-03-14T04:48:30;1.53;;;1.10;;
66093;SDS011;52876;49.394;10.892;2023-03-14T04:50:56;1.40;;;1.30;;
66093;SDS011;52876;49.394;10.892;2023-03-14T04:53:22;1.80;;;1.70;;
66093;SDS011;52876;49.394;10.892;2023-03-14T04:55:48;1.30;;;1.20;;
66093;SDS011;52876;49.394;10.892;2023-03-14T04:58:15;1.10;;;0.97;;
66093;SDS011;52876;49.394;10.892;2023-03-14T05:00:42;1.00;;;0.90;;
66093;SDS011;52876;49.394;10.892;2023-03-14T05:03:10;1.20;;;1.10;;
66093;SDS011;52876;49.394;10.892;2023-03-14T05:05:36;1.00;;;0.80;;
66093;SDS011;52876;49.394;10.892;2023-03-14T05:08:02;0.97;;;0.70;;
66093;SDS011;52876;49.394;10.892;2023-03-14T05:10:29;1.10;;;0.87;;
66093;SDS011;52876;49.394;10.892;2023-03-14T05:12:55;1.53;;;0.80;;
66093;SDS011;52876;49.394;10.892;2023-03-14T05:15:21;0.90;;;0.77;;
66093;SDS011;52876;49.394;10.892;2023-03-14T05:17:48;0.90;;;0.70;;
66093;SDS011;52876;49.394;10.892;2023-03-14T05:20:15;0.97;;;0.70;;
66093;SDS011;52876;49.394;10.892;2023-03-14T05:22:43;0.90;;;0.70;;
66093;SDS011;52876;49.394;10.892;2023-03-14T05:25:09;1.43;;;0.70;;
66093;SDS011;52876;49.394;10.892;2023-03-14T05:27:37;0.93;;;0.77;;
66093;SDS011;52876;49.394;10.892;2023-03-14T05:30:04;2.13;;;1.10;;
66093;SDS011;52876;49.394;10.892;2023-03-14T05:32:32;0.80;;;0.60;;
66093;SDS011;52876;49.394;10.892;2023-03-14T05:34:58;0.90;;;0.70;;
66093;SDS011;52876;49.394;10.892;2023-03-14T05:37:26;1.43;;;0.60;;
66093;SDS011;52876;49.394;10.892;2023-03-14T05:39:52;0.83;;;0.60;;
66093;SDS011;52876;49.394;10.892;2023-03-14T05:42:19;0.80;;;0.70;;
66093;SDS011;52876;49.394;10.892;2023-03-14T05:44:45;1.00;;;0.60;;
66093;SDS011;52876;49.394;10.892;2023-03-14T05:47:11;1.30;;;0.80;;
66093;SDS011;52876;49.394;10.892;2023-03-14T05:49:37;1.00;;;0.80;;
66093;SDS011;52876;49.394;10.892;2023-03-14T05:52:05;1.17;;;0.80;;
66093;SDS011;52876;49.394;10.892;2023-03-14T05:54:32;1.00;;;0.73;;
66093;SDS011;52876;49.394;10.892;2023-03-14T05:57:00;1.33;;;0.70;;
66093;SDS011;52876;49.394;10.892;2023-03-14T05:59:26;1.03;;;0.80;;
66093;SDS011;52876;49.394;10.892;2023-03-14T06:01:53;0.97;;;0.80;;
66093;SDS011;52876;49.394;10.892;2023-03-14T06:04:19;1.00;;;0.90;;
66093;SDS011;52876;49.394;10.892;2023-03-14T06:06:45;1.23;;;0.90;;
66093;SDS011;52876;49.394;10.892;2023-03-14T06:09:12;1.07;;;0.97;;
66093;SDS011;52876;49.394;10.892;2023-03-14T06:11:40;1.00;;;0.70;;
66093;SDS011;52876;49.394;10.892;2023-03-14T06:14:07;1.00;;;0.80;;
66093;SDS011;52876;49.394;10.892;2023-03-14T06:16:34;1.23;;;0.70;;
66093;SDS011;52876;49.394;10.892;2023-03-14T06:19:01;1.63;;;0.90;;
66093;SDS011;52876;49.394;10.892;2023-03-14T06:21:27;1.70;;;0.80;;
66093;SDS011;52876;49.394;10.892;2023-03-14T06:23:53;1.23;;;1.10;;
66093;SDS011;52876;49.394;10.892;2023-03-14T06:26:20;1.10;;;1.00;;
66093;SDS011;52876;49.394;10.892;2023-03-14T06:28:47;1.40;;;0.80;;
66093;SDS011;52876;49.394;10.892;2023-03-14T06:31:13;2.50;;;0.83;;
66093;SDS011;52876;49.394;10.892;2023-03-14T06:33:40;1.20;;;0.90;;
66093;SDS011;52876;49.394;10.892;2023-03-14T06:36:07;1.17;;;0.90;;
66093;SDS011;52876;49.394;10.892;2023-03-14T06:38:34;3.53;;;1.00;;
66093;SDS011;52876;49.394;10.892;2023-03-14T06:41:02;1.03;;;0.87;;
66093;SDS011;52876;49.394;10.892;2023-03-14T06:43:28;1.07;;;0.97;;
66093;SDS011;52876;49.394;10.892;2023-03-14T06:45:56;1.23;;;1.00;;
66093;SDS011;52876;49.394;10.892;2023-03-14T06:48:22;1.20;;;0.90;;
66093;SDS011;52876;49.394;10.892;2023-03-14T06:50:49;1.37;;;1.00;;
66093;SDS011;52876;49.394;10.892;2023-03-14T06:53:15;1.47;;;0.90;;
66093;SDS011;52876;49.394;10.892;2023-03-14T06:55:42;1.20;;;1.00;;
66093;SDS011;52876;49.394;10.892;2023-03-14T06:58:08;1.50;;;1.00;;
66093;SDS011;52876;49.394;10.892;2023-03-14T07:00:34;0.97;;;0.83;;
66093;SDS011;52876;49.394;10.892;2023-03-14T07:03:01;1.60;;;1.00;;
66093;SDS011;52876;49.394;10.892;2023-03-14T07:05:27;1.20;;;1.00;;
66093;SDS011;52876;49.394;10.892;2023-03-14T07:07:53;1.03;;;0.90;;
66093;SDS011;52876;49.394;10.892;2023-03-14T07:10:21;1.10;;;1.00;;
66093;SDS011;52876;49.394;10.892;2023-03-14T07:12:49;1.17;;;1.00;;
66093;SDS011;52876;49.394;10.892;2023-03-14T07:15:15;1.10;;;0.90;;
66093;SDS011;52876;49.394;10.892;2023-03-14T07:17:42;1.77;;;1.27;;
66093;SDS011;52876;49.394;10.892;2023-03-14T07:20:10;1.10;;;1.00;;
66093;SDS011;52876;49.394;10.892;2023-03-14T07:22:38;1.10;;;1.00;;
66093;SDS011;52876;49.394;10.892;2023-03-14T07:25:04;1.00;;;0.87;;
66093;SDS011;52876;49.394;10.892;2023-03-14T07:27:32;1.53;;;1.10;;
66093;SDS011;52876;49.394;10.892;2023-03-14T07:29:58;1.10;;;1.00;;
66093;SDS011;52876;49.394;10.892;2023-03-14T07:32:25;1.60;;;1.10;;
66093;SDS011;52876;49.394;10.892;2023-03-14T07:34:51;1.40;;;1.30;;
66093;SDS011;52876;49.394;10.892;2023-03-14T07:37:20;3.63;;;1.20;;
66093;SDS011;52876;49.394;10.892;2023-03-14T07:39:46;1.20;;;1.10;;
66093;SDS011;52876;49.394;10.892;2023-03-14T07:42:14;1.40;;;1.30;;
66093;SDS011;52876;49.394;10.892;2023-03-14T07:44:40;2.63;;;1.10;;
66093;SDS011;52876;49.394;10.892;2023-03-14T07:47:06;2.43;;;1.40;;
66093;SDS011;52876;49.394;10.892;2023-03-14T07:49:32;1.23;;;1.10;;
66093;SDS011;52876;49.394;10.892;2023-03-14T07:51:59;3.43;;;1.40;;
66093;SDS011;52876;49.394;10.892;2023-03-14T07:54:27;2.03;;;1.70;;
66093;SDS011;52876;49.394;10.892;2023-03-14T07:56:54;1.50;;;1.20;;
66093;SDS011;52876;49.394;10.892;2023-03-14T07:59:20;1.37;;;1.23;;
66093;SDS011;52876;49.394;10.892;2023-03-14T08:01:48;1.40;;;1.30;;
66093;SDS011;52876;49.394;10.892;2023-03-14T08:04:14;1.30;;;1.20;;
66093;SDS011;52876;49.394;10.892;2023-03-14T08:06:41;1.47;;;1.33;;
66093;SDS011;52876;49.394;10.892;2023-03-14T08:09:07;1.60;;;1.50;;
66093;SDS011;52876;49.394;10.892;2023-03-14T08:11:35;1.50;;;1.30;;
66093;SDS011;52876;49.394;10.892;2023-03-14T08:14:01;2.47;;;1.67;;
66093;SDS011;52876;49.394;10.892;2023-03-14T08:16:27;1.60;;;1.50;;
66093;SDS011;52876;49.394;10.892;2023-03-14T08:18:53;3.10;;;1.53;;
66093;SDS011;52876;49.394;10.892;2023-03-14T08:21:19;1.70;;;1.43;;
66093;SDS011;52876;49.394;10.892;2023-03-14T08:23:45;1.40;;;1.30;;
66093;SDS011;52876;49.394;10.892;2023-03-14T08:26:13;1.23;;;1.13;;
66093;SDS011;52876;49.394;10.892;2023-03-14T08:28:40;2.03;;;1.17;;
66093;SDS011;52876;49.394;10.892;2023-03-14T08:31:06;2.07;;;1.83;;
66093;SDS011;52876;49.394;10.892;2023-03-14T08:33:32;1.30;;;1.00;;
66093;SDS011;52876;49.394;10.892;2023-03-14T08:36:00;1.57;;;0.93;;
66093;SDS011;52876;49.394;10.892;2023-03-14T08:38:26;2.10;;;1.00;;
66093;SDS011;52876;49.394;10.892;2023-03-14T08:40:56;1.53;;;1.00;;
66093;SDS011;52876;49.394;10.892;2023-03-14T08:43:22;1.73;;;1.10;;
66093;SDS011;52876;49.394;10.892;2023-03-14T08:45:49;1.57;;;0.90;;
66093;SDS011;52876;49.394;10.892;2023-03-14T08:48:15;1.63;;;1.00;;
66093;SDS011;52876;49.394;10.892;2023-03-14T08:50:41;1.73;;;0.90;;
66093;SDS011;52876;49.394;10.892;2023-03-14T08:53:08;1.60;;;0.80;;
66093;SDS011;52876;49.394;10.892;2023-03-14T08:55:35;1.47;;;0.93;;
66093;SDS011;52876;49.394;10.892;2023-03-14T08:58:01;1.20;;;0.90;;
66093;SDS011;52876;49.394;10.892;2023-03-14T09:00:29;2.27;;;1.00;;
66093;SDS011;52876;49.394;10.892;2023-03-14T09:02:56;1.20;;;1.00;;
66093;SDS011;52876;49.394;10.892;2023-03-14T09:05:24;1.90;;;1.00;;
66093;SDS011;52876;49.394;10.892;2023-03-14T09:07:50;1.77;;;0.70;;
66093;SDS011;52876;49.394;10.892;2023-03-14T09:10:17;1.73;;;0.77;;
66093;SDS011;52876;49.394;10.892;2023-03-14T09:12:45;2.10;;;0.90;;
66093;SDS011;52876;49.394;10.892;2023-03-14T09:15:11;1.10;;;0.83;;
66093;SDS011;52876;49.394;10.892;2023-03-14T09:17:39;1.07;;;0.90;;
66093;SDS011;52876;49.394;10.892;2023-03-14T09:20:07;3.30;;;0.90;;
66093;SDS011;52876;49.394;10.892;2023-03-14T09:22:35;2.30;;;0.93;;
66093;SDS011;52876;49.394;10.892;2023-03-14T09:25:02;1.10;;;0.80;;
66093;SDS011;52876;49.394;10.892;2023-03-14T09:27:29;0.93;;;0.73;;
66093;SDS011;52876;49.394;10.892;2023-03-14T09:29:56;2.27;;;0.90;;
66093;SDS011;52876;49.394;10.892;2023-03-14T09:32:22;1.17;;;0.87;;
66093;SDS011;52876;49.394;10.892;2023-03-14T09:34:48;1.47;;;0.70;;
66093;SDS011;52876;49.394;10.892;2023-03-14T09:37:16;1.30;;;0.90;;
66093;SDS011;52876;49.394;10.892;2023-03-14T09:39:42;2.80;;;1.00;;
66093;SDS011;52876;49.394;10.892;2023-03-14T09:42:10;2.60;;;0.90;;
66093;SDS011;52876;49.394;10.892;2023-03-14T09:44:39;1.07;;;0.73;;
66093;SDS011;52876;49.394;10.892;2023-03-14T09:47:10;1.00;;;0.70;;
66093;SDS011;52876;49.394;10.892;2023-03-14T09:49:39;1.27;;;0.70;;
66093;SDS011;52876;49.394;10.892;2023-03-14T09:52:06;2.17;;;0.90;;
66093;SDS011;52876;49.394;10.892;2023-03-14T09:54:39;0.93;;;0.60;;
66093;SDS011;52876;49.394;10.892;2023-03-14T09:57:10;1.20;;;0.80;;
66093;SDS011;52876;49.394;10.892;2023-03-14T09:59:38;1.10;;;0.80;;
66093;SDS011;52876;49.394;10.892;2023-03-14T10:02:11;1.40;;;0.80;;
66093;SDS011;52876;49.394;10.892;2023-03-14T10:04:39;1.27;;;0.80;;
66093;SDS011;52876;49.394;10.892;2023-03-14T10:07:07;1.13;;;0.77;;
66093;SDS011;52876;49.394;10.892;2023-03-14T10:09:34;1.10;;;0.70;;
66093;SDS011;52876;49.394;10.892;2023-03-14T10:12:03;2.63;;;0.80;;
66093;SDS011;52876;49.394;10.892;2023-03-14T10:14:30;0.90;;;0.70;;
66093;SDS011;52876;49.394;10.892;2023-03-14T10:17:04;0.97;;;0.70;;
66093;SDS011;52876;49.394;10.892;2023-03-14T10:19:31;1.47;;;0.70;;
66093;SDS011;52876;49.394;10.892;2023-03-14T10:21:57;1.30;;;0.80;;
66093;SDS011;52876;49.394;10.892;2023-03-14T10:24:26;0.90;;;0.80;;
66093;SDS011;52876;49.394;10.892;2023-03-14T10:26:55;1.10;;;0.80;;
66093;SDS011;52876;49.394;10.892;2023-03-14T10:29:25;1.47;;;0.97;;
66093;SDS011;52876;49.394;10.892;2023-03-14T10:31:52;1.47;;;0.70;;
66093;SDS011;52876;49.394;10.892;2023-03-14T10:34:21;1.00;;;0.80;;
66093;SDS011;52876;49.394;10.892;2023-03-14T10:36:51;1.53;;;0.70;;
66093;SDS011;52876;49.394;10.892;2023-03-14T10:39:25;1.10;;;1.00;;
66093;SDS011;52876;49.394;10.892;2023-03-14T10:41:54;0.90;;;0.70;;
66093;SDS011;52876;49.394;10.892;2023-03-14T10:44:21;1.97;;;0.97;;
66093;SDS011;52876;49.394;10.892;2023-03-14T10:46:56;1.77;;;0.87;;
66093;SDS011;52876;49.394;10.892;2023-03-14T10:49:23;1.60;;;1.00;;
66093;SDS011;52876;49.394;10.892;2023-03-14T10:51:53;1.87;;;0.80;;
66093;SDS011;52876;49.394;10.892;2023-03-14T10:54:20;2.27;;;0.90;;
66093;SDS011;52876;49.394;10.892;2023-03-14T10:56:47;1.67;;;0.90;;
66093;SDS011;52876;49.394;10.892;2023-03-14T10:59:21;1.10;;;0.90;;
66093;SDS011;52876;49.394;10.892;2023-03-14T11:01:51;1.00;;;0.83;;
66093;SDS011;52876;49.394;10.892;2023-03-14T11:04:24;2.40;;;1.10;;
66093;SDS011;52876;49.394;10.892;2023-03-14T11:06:53;3.27;;;1.00;;
66093;SDS011;52876;49.394;10.892;2023-03-14T11:09:23;1.00;;;0.90;;
66093;SDS011;52876;49.394;10.892;2023-03-14T11:11:52;2.60;;;0.90;;
66093;SDS011;52876;49.394;10.892;2023-03-14T11:14:25;3.90;;;1.70;;
66093;SDS011;52876;49.394;10.892;2023-03-14T11:16:52;2.77;;;1.10;;
66093;SDS011;52876;49.394;10.892;2023-03-14T11:22:08;1.20;;;0.80;;
66093;SDS011;52876;49.394;10.892;2023-03-14T11:24:40;2.50;;;1.40;;
66093;SDS011;52876;49.394;10.892;2023-03-14T11:27:11;1.40;;;1.10;;
66093;SDS011;52876;49.394;10.892;2023-03-14T11:29:43;1.00;;;0.80;;
66093;SDS011;52876;49.394;10.892;2023-03-14T11:32:17;1.20;;;1.00;;
66093;SDS011;52876;49.394;10.892;2023-03-14T11:34:48;1.50;;;1.20;;
66093;SDS011;52876;49.394;10.892;2023-03-14T11:37:20;1.10;;;0.80;;
66093;SDS011;52876;49.394;10.892;2023-03-14T11:39:51;1.30;;;0.70;;
66093;SDS011;52876;49.394;10.892;2023-03-14T11:42:20;1.10;;;0.87;;
66093;SDS011;52876;49.394;10.892;2023-03-14T11:44:48;3.67;;;2.53;;
66093;SDS011;52876;49.394;10.892;2023-03-14T11:47:15;1.47;;;1.37;;
66093;SDS011;52876;49.394;10.892;2023-03-14T11:49:44;3.03;;;2.73;;
66093;SDS011;52876;49.394;10.892;2023-03-14T11:52:12;2.37;;;2.17;;
66093;SDS011;52876;49.394;10.892;2023-03-14T11:54:42;2.77;;;2.57;;
66093;SDS011;52876;49.394;10.892;2023-03-14T11:57:10;1.90;;;1.80;;
66093;SDS011;52876;49.394;10.892;2023-03-14T11:59:41;3.17;;;2.87;;
66093;SDS011;52876;49.394;10.892;2023-03-14T12:02:09;2.00;;;1.90;;
66093;SDS011;52876;49.394;10.892;2023-03-14T12:04:43;2.63;;;2.43;;
66093;SDS011;52876;49.394;10.892;2023-03-14T12:07:14;2.10;;;2.00;;
66093;SDS011;52876;49.394;10.892;2023-03-14T12:09:44;3.10;;;2.87;;
66093;SDS011;52876;49.394;10.892;2023-03-14T12:12:11;2.10;;;2.00;;
66093;SDS011;52876;49.394;10.892;2023-03-14T12:14:38;5.93;;;2.47;;
66093;SDS011;52876;49.394;10.892;2023-03-14T12:17:17;1.53;;;1.43;;
66093;SDS011;52876;49.394;10.892;2023-03-14T12:19:45;2.80;;;2.60;;
66093;SDS011;52876;49.394;10.892;2023-03-14T12:22:24;5.90;;;5.43;;
66093;SDS011;52876;49.394;10.892;2023-03-14T12:24:54;1.33;;;1.23;;
66093;SDS011;52876;49.394;10.892;2023-03-14T12:27:42;2.20;;;1.40;;
66093;SDS011;52876;49.394;10.892;2023-03-14T12:30:14;3.57;;;3.37;;
66093;SDS011;52876;49.394;10.892;2023-03-14T12:32:42;1.50;;;1.40;;
66093;SDS011;52876;49.394;10.892;2023-03-14T12:35:35;1.77;;;1.67;;
66093;SDS011;52876;49.394;10.892;2023-03-14T12:38:02;3.30;;;3.10;;
66093;SDS011;52876;49.394;10.892;2023-03-14T12:40:31;1.57;;;1.47;;
66093;SDS011;52876;49.394;10.892;2023-03-14T12:42:58;1.67;;;1.10;;
66093;SDS011;52876;49.394;10.892;2023-03-14T12:45:28;1.20;;;1.10;;
66093;SDS011;52876;49.394;10.892;2023-03-14T12:48:03;2.23;;;1.40;;
66093;SDS011;52876;49.394;10.892;2023-03-14T12:50:31;0.90;;;0.80;;
66093;SDS011;52876;49.394;10.892;2023-03-14T12:55:43;0.80;;;0.60;;
66093;SDS011;52876;49.394;10.892;2023-03-14T12:58:12;1.10;;;1.00;;
66093;SDS011;52876;49.394;10.892;2023-03-14T13:00:41;12.57;;;1.20;;
66093;SDS011;52876;49.394;10.892;2023-03-14T13:03:17;1.10;;;0.80;;
66093;SDS011;52876;49.394;10.892;2023-03-14T13:05:51;1.53;;;1.43;;
66093;SDS011;52876;49.394;10.892;2023-03-14T13:08:31;2.33;;;1.83;;
66093;SDS011;52876;49.394;10.892;2023-03-14T13:10:59;1.17;;;1.07;;
66093;SDS011;52876;49.394;10.892;2023-03-14T13:13:27;3.83;;;1.40;;
66093;SDS011;52876;49.394;10.892;2023-03-14T13:15:54;1.20;;;1.10;;
66093;SDS011;52876;49.394;10.892;2023-03-14T13:18:23;2.43;;;2.23;;
66093;SDS011;52876;49.394;10.892;2023-03-14T13:20:52;1.40;;;1.30;;
66093;SDS011;52876;49.394;10.892;2023-03-14T13:23:19;4.07;;;3.23;;
66093;SDS011;52876;49.394;10.892;2023-03-14T13:25:46;3.07;;;2.83;;
66093;SDS011;52876;49.394;10.892;2023-03-14T13:28:13;1.63;;;1.53;;
66093;SDS011;52876;49.394;10.892;2023-03-14T13:30:42;2.13;;;2.03;;
66093;SDS011;52876;49.394;10.892;2023-03-14T13:33:11;2.10;;;1.90;;
66093;SDS011;52876;49.394;10.892;2023-03-14T13:35:40;1.30;;;1.20;;
66093;SDS011;52876;49.394;10.892;2023-03-14T13:38:13;1.70;;;1.60;;
66093;SDS011;52876;49.394;10.892;2023-03-14T13:40:40;3.17;;;2.90;;
66093;SDS011;52876;49.394;10.892;2023-03-14T13:43:14;2.00;;;1.80;;
66093;SDS011;52876;49.394;10.892;2023-03-14T13:45:50;2.33;;;2.13;;
66093;SDS011;52876;49.394;10.892;2023-03-14T13:48:16;1.40;;;1.30;;
66093;SDS011;52876;49.394;10.892;2023-03-14T13:50:45;2.23;;;2.10;;
66093;SDS011;52876;49.394;10.892;2023-03-14T13:53:12;1.20;;;1.10;;
66093;SDS011;52876;49.394;10.892;2023-03-14T13:55:39;1.23;;;1.13;;
66093;SDS011;52876;49.394;10.892;2023-03-14T13:58:10;1.87;;;1.77;;
66093;SDS011;52876;49.394;10.892;2023-03-14T14:00:38;1.40;;;1.30;;
66093;SDS011;52876;49.394;10.892;2023-03-14T14:03:08;1.30;;;1.20;;
66093;SDS011;52876;49.394;10.892;2023-03-14T14:05:37;1.70;;;1.60;;
66093;SDS011;52876;49.394;10.892;2023-03-14T14:08:03;1.47;;;1.37;;
66093;SDS011;52876;49.394;10.892;2023-03-14T14:10:31;2.47;;;2.27;;
66093;SDS011;52876;49.394;10.892;2023-03-14T14:12:59;2.40;;;2.30;;
66093;SDS011;52876;49.394;10.892;2023-03-14T14:15:28;2.87;;;2.67;;
66093;SDS011;52876;49.394;10.892;2023-03-14T14:17:56;1.80;;;1.70;;
66093;SDS011;52876;49.394;10.892;2023-03-14T14:20:26;2.07;;;1.97;;
66093;SDS011;52876;49.394;10.892;2023-03-14T14:22:53;1.70;;;1.60;;
66093;SDS011;52876;49.394;10.892;2023-03-14T14:25:21;2.63;;;2.43;;
66093;SDS011;52876;49.394;10.892;2023-03-14T14:27:49;3.70;;;3.40;;
66093;SDS011;52876;49.394;10.892;2023-03-14T14:30:25;2.00;;;1.90;;
66093;SDS011;52876;49.394;10.892;2023-03-14T14:32:52;2.27;;;2.17;;
66093;SDS011;52876;49.394;10.892;2023-03-14T14:35:23;1.70;;;1.60;;
66093;SDS011;52876;49.394;10.892;2023-03-14T14:37:49;1.90;;;1.80;;
66093;SDS011;52876;49.394;10.892;2023-03-14T14:40:16;2.30;;;1.50;;
66093;SDS011;52876;49.394;10.892;2023-03-14T14:42:46;2.37;;;2.27;;